Terminal Aerodrome Forecast
Issued by NWS Greer, SC

Home | Current Version | Previous Version | Text Only | Print | Product List | Glossary On
Versions: 1 2 3 4 5 6 7 8 9 10 11 12 13 14 15 16 17 18 19 20 21 22 23 24 25 26 27 28 29 30 31 32 33 34 35 36 37 38 39 40 41 42 43 44 45 46 47 48 49 50
527
FTUS42 KGSP 172216 AAC
TAFCLT
TAF AMD
KCLT 172216Z 1722/1824 06010KT P6SM SCT060 SCT110 BKN250
     FM180000 07009KT P6SM BKN050
     FM180500 08010KT P6SM BKN020 OVC040 PROB30 1808/1811 4SM -SHRA
      OVC015
     FM181400 06007KT P6SM BKN035
     FM181700 04007KT P6SM SCT050 SCT250=

USA.gov is the U.S. government's official web portal to all federal, state and local government web resources and services.